createdAt,value
2022-12-08T00:01:16.081Z,48.63
2022-12-08T00:02:37.331Z,52.90
2022-12-08T00:04:04.377Z,54.55
2022-12-08T00:05:43.802Z,52.65
2022-12-08T00:07:23.242Z,51.08
2022-12-08T00:09:02.674Z,48.58
2022-12-08T00:10:48.013Z,52.78
2022-12-08T00:12:16.544Z,53.05
2022-12-08T00:13:37.678Z,60.45
2022-12-08T00:14:58.924Z,69.10
2022-12-08T00:16:20.140Z,58.45
2022-12-08T00:17:41.246Z,51.55
2022-12-08T00:19:02.381Z,52.78
2022-12-08T00:20:23.789Z,30.88
2022-12-08T00:21:44.996Z,34.90
2022-12-08T00:23:05.910Z,35.83
2022-12-08T00:24:31.942Z,30.50
2022-12-08T00:25:53.166Z,24.08
2022-12-08T00:27:16.244Z,57.97
2022-12-08T00:28:37.602Z,113.82
2022-12-08T00:29:58.562Z,24.38
2022-12-08T00:31:19.996Z,24.48
2022-12-08T00:32:41.257Z,23.33
2022-12-08T00:34:02.506Z,26.90
2022-12-08T00:35:23.362Z,27.92
2022-12-08T00:36:45.038Z,16.92
2022-12-08T00:38:06.094Z,16.55
2022-12-08T00:39:27.336Z,16.40
2022-12-08T00:40:48.657Z,15.45
2022-12-08T00:42:12.556Z,17.60
2022-12-08T00:43:33.537Z,12.60
2022-12-08T00:44:54.731Z,12.77
2022-12-08T00:46:15.872Z,15.90
2022-12-08T00:47:36.984Z,16.95
2022-12-08T00:48:58.167Z,17.60
2022-12-08T00:50:19.342Z,15.75
2022-12-08T00:51:40.606Z,14.77
2022-12-08T00:53:01.856Z,16.50
2022-12-08T00:54:23.395Z,22.23
2022-12-08T00:55:44.577Z,23.35
2022-12-08T00:57:05.719Z,28.65
2022-12-08T00:58:27.110Z,36.80
2022-12-08T00:59:47.982Z,37.55
2022-12-08T01:01:13.504Z,41.50
2022-12-08T01:02:34.786Z,43.60
2022-12-08T01:03:55.705Z,39.40
2022-12-08T01:05:16.855Z,45.97
2022-12-08T01:06:39.078Z,40.75
2022-12-08T01:08:00.227Z,41.70
2022-12-08T01:09:21.763Z,49.28
2022-12-08T01:10:42.709Z,59.15
2022-12-08T01:12:04.183Z,38.83
2022-12-08T01:13:25.399Z,37.83
2022-12-08T01:14:46.785Z,25.20
2022-12-08T01:16:08.507Z,57.00
2022-12-08T01:17:29.674Z,39.33
2022-12-08T01:18:51.360Z,33.97
2022-12-08T01:20:12.489Z,31.50
2022-12-08T01:21:33.543Z,32.83
2022-12-08T01:22:54.685Z,34.95
2022-12-08T01:24:18.360Z,26.65
2022-12-08T01:25:39.537Z,26.60
2022-12-08T01:27:00.429Z,26.92
2022-12-08T01:28:21.743Z,23.90
2022-12-08T01:29:42.731Z,16.75
2022-12-08T01:31:04.215Z,24.50
2022-12-08T01:32:25.135Z,25.65
2022-12-08T01:33:47.130Z,35.33
2022-12-08T01:35:08.457Z,27.55
2022-12-08T01:36:32.298Z,24.80
2022-12-08T01:37:52.919Z,30.63
2022-12-08T01:39:16.984Z,33.95
2022-12-08T01:40:37.806Z,34.33
2022-12-08T01:41:59.061Z,29.88
2022-12-08T01:43:20.940Z,35.00
2022-12-08T01:44:42.292Z,37.95
2022-12-08T01:46:03.778Z,36.53
2022-12-08T01:47:29.324Z,33.55
2022-12-08T01:48:54.519Z,39.17
2022-12-08T01:50:18.222Z,33.75
2022-12-08T01:51:47.993Z,32.13
2022-12-08T01:54:42.111Z,33.38
2022-12-08T01:56:10.740Z,30.08
2022-12-08T01:57:41.018Z,37.38
2022-12-08T01:59:03.368Z,57.88
2022-12-08T02:00:24.858Z,93.63
2022-12-08T02:01:45.860Z,156.55
2022-12-08T02:03:12.411Z,47.13
2022-12-08T02:04:33.437Z,39.58
2022-12-08T02:05:55.074Z,81.05
2022-12-08T02:07:16.733Z,65.10
2022-12-08T02:08:40.545Z,48.20
2022-12-08T02:10:03.405Z,47.88
2022-12-08T02:11:24.434Z,50.95
2022-12-08T02:12:47.309Z,49.72
2022-12-08T02:14:10.347Z,51.03
2022-12-08T02:15:56.246Z,51.90
2022-12-08T02:17:40.375Z,52.30
2022-12-08T02:21:14.170Z,44.67
2022-12-08T02:22:47.292Z,42.85
2022-12-08T02:24:30.749Z,45.63
2022-12-08T02:26:33.587Z,40.30
2022-12-08T02:28:37.257Z,39.10
2022-12-08T02:30:07.740Z,33.10
2022-12-08T02:31:58.615Z,35.60
2022-12-08T02:33:47.146Z,40.65
2022-12-08T02:35:39.092Z,36.38
2022-12-08T02:37:15.240Z,34.63
2022-12-08T02:38:50.388Z,39.42
2022-12-08T02:40:14.486Z,43.95
2022-12-08T02:41:59.506Z,53.15
2022-12-08T02:43:35.307Z,50.65
2022-12-08T02:45:24.780Z,54.70
2022-12-08T02:46:58.194Z,54.55
2022-12-08T02:48:19.536Z,31.20
2022-12-08T02:49:40.740Z,23.50
2022-12-08T02:51:02.503Z,17.92
2022-12-08T02:52:23.243Z,13.90
2022-12-08T02:53:45.067Z,11.88
2022-12-08T02:55:14.312Z,17.80
2022-12-08T02:57:02.597Z,16.17
2022-12-08T02:58:29.615Z,12.93
2022-12-08T03:00:09.212Z,14.30
2022-12-08T03:01:43.631Z,16.23
2022-12-08T03:03:13.707Z,11.43
2022-12-08T03:04:37.414Z,11.00
2022-12-08T03:06:11.223Z,14.07
2022-12-08T03:07:40.686Z,15.68
2022-12-08T03:09:14.362Z,14.43
2022-12-08T03:10:46.500Z,20.17
2022-12-08T03:12:25.641Z,16.25
2022-12-08T03:13:53.201Z,20.38
2022-12-08T03:15:20.165Z,18.25
2022-12-08T03:16:44.117Z,18.67
2022-12-08T03:18:09.571Z,17.98
2022-12-08T03:19:38.175Z,18.50
2022-12-08T03:21:00.130Z,20.27
2022-12-08T03:22:23.687Z,25.92
2022-12-08T03:23:47.134Z,24.48
2022-12-08T03:25:12.716Z,28.85
2022-12-08T03:26:53.069Z,28.65
2022-12-08T03:28:14.174Z,31.30
2022-12-08T03:29:35.278Z,30.27
2022-12-08T03:31:00.140Z,34.13
2022-12-08T03:33:00.353Z,30.10
2022-12-08T03:34:23.987Z,34.20
2022-12-08T03:35:46.401Z,36.08
2022-12-08T03:37:07.714Z,41.28
2022-12-08T03:38:38.518Z,42.80
2022-12-08T03:39:59.488Z,45.70
2022-12-08T03:41:22.237Z,40.25
2022-12-08T03:42:43.437Z,34.55
2022-12-08T03:44:04.513Z,29.92
2022-12-08T03:45:26.156Z,25.33
2022-12-08T03:46:47.319Z,24.80
2022-12-08T03:48:08.630Z,21.05
2022-12-08T03:49:29.494Z,20.52
2022-12-08T03:50:50.759Z,22.40
2022-12-08T03:52:12.382Z,26.13
2022-12-08T03:53:33.843Z,23.45
2022-12-08T03:54:54.773Z,20.45
2022-12-08T03:56:34.309Z,24.80
2022-12-08T03:57:55.115Z,44.08
2022-12-08T03:59:16.362Z,53.38
2022-12-08T04:00:37.253Z,62.53
2022-12-08T04:01:58.648Z,77.90
2022-12-08T04:03:20.022Z,77.32
2022-12-08T04:04:40.923Z,68.30
2022-12-08T04:06:02.030Z,56.78
2022-12-08T04:07:23.271Z,64.20
2022-12-08T04:08:44.758Z,63.03
2022-12-08T04:10:06.497Z,59.63
2022-12-08T04:11:27.749Z,64.28
2022-12-08T04:12:48.877Z,54.92
2022-12-08T04:14:10.129Z,54.58
2022-12-08T04:15:31.173Z,62.97
2022-12-08T04:16:52.490Z,63.17
2022-12-08T04:18:14.250Z,71.30
2022-12-08T04:19:35.078Z,68.70
2022-12-08T04:20:56.293Z,56.03
2022-12-08T04:22:17.469Z,57.33
2022-12-08T04:23:38.990Z,56.38
2022-12-08T04:24:59.902Z,67.38
2022-12-08T04:26:21.045Z,62.28
2022-12-08T04:27:42.045Z,67.78
2022-12-08T04:29:03.296Z,87.78
2022-12-08T04:30:24.550Z,102.03
2022-12-08T04:31:46.118Z,93.35
2022-12-08T04:33:07.370Z,87.30
2022-12-08T04:34:28.693Z,77.38
2022-12-08T04:35:49.989Z,89.10
2022-12-08T04:37:11.282Z,60.50
2022-12-08T04:38:33.617Z,59.17
2022-12-08T04:39:54.753Z,43.22
2022-12-08T04:41:15.694Z,41.17
2022-12-08T04:42:37.398Z,35.17
2022-12-08T04:43:58.406Z,42.22
2022-12-08T04:45:19.416Z,43.42
2022-12-08T04:46:43.642Z,55.55
2022-12-08T04:48:05.242Z,57.10
2022-12-08T04:49:26.073Z,63.60
2022-12-08T04:50:47.199Z,61.05
2022-12-08T04:52:08.337Z,65.10
2022-12-08T04:53:29.675Z,59.97
2022-12-08T04:54:50.766Z,55.25
2022-12-08T04:56:13.552Z,57.72
2022-12-08T04:57:34.462Z,60.65
2022-12-08T04:58:55.662Z,73.45
2022-12-08T05:00:17.967Z,62.92
2022-12-08T05:01:38.953Z,66.07
2022-12-08T05:03:00.026Z,65.07
2022-12-08T05:04:21.061Z,62.70
2022-12-08T05:05:42.717Z,67.80
2022-12-08T05:07:04.021Z,80.93
2022-12-08T05:08:25.120Z,78.35
2022-12-08T05:09:46.166Z,83.40
2022-12-08T05:11:09.860Z,89.72
2022-12-08T05:12:31.076Z,86.50
2022-12-08T05:13:52.361Z,90.20
2022-12-08T05:15:13.621Z,93.32
2022-12-08T05:16:34.760Z,81.47
2022-12-08T05:17:56.177Z,75.20
2022-12-08T05:19:18.070Z,81.35
2022-12-08T05:20:39.251Z,99.50
2022-12-08T05:22:00.263Z,110.43
2022-12-08T05:23:21.387Z,82.22
2022-12-08T05:24:47.422Z,90.97
2022-12-08T05:26:08.880Z,75.57
2022-12-08T05:27:30.016Z,67.13
2022-12-08T05:28:51.159Z,73.90
2022-12-08T05:30:12.588Z,77.20
2022-12-08T05:31:33.715Z,74.18
2022-12-08T05:32:54.875Z,69.97
2022-12-08T05:34:15.915Z,51.35
2022-12-08T05:35:36.938Z,54.25
2022-12-08T05:36:58.095Z,77.53
2022-12-08T05:38:19.389Z,72.15
2022-12-08T05:39:40.829Z,71.07
2022-12-08T05:41:01.908Z,71.53
2022-12-08T05:42:24.931Z,74.72
2022-12-08T05:43:47.135Z,58.45
2022-12-08T05:45:08.980Z,75.85
2022-12-08T05:46:29.809Z,99.95
2022-12-08T05:47:53.493Z,109.40
2022-12-08T05:49:14.843Z,94.68
2022-12-08T05:50:36.118Z,92.35
2022-12-08T05:51:58.979Z,69.07
2022-12-08T05:53:20.613Z,61.33
2022-12-08T05:54:41.835Z,61.88
2022-12-08T05:56:03.336Z,77.40
2022-12-08T05:57:24.438Z,73.38
2022-12-08T05:58:45.278Z,76.70
2022-12-08T06:00:07.223Z,58.88
2022-12-08T06:01:32.968Z,81.53
2022-12-08T06:02:54.197Z,43.25
2022-12-08T06:04:15.500Z,56.05
2022-12-08T06:05:36.902Z,39.05
2022-12-08T06:06:58.090Z,45.03
2022-12-08T06:08:19.262Z,48.42
2022-12-08T06:09:40.342Z,43.88
2022-12-08T06:11:02.226Z,48.78
2022-12-08T06:12:23.109Z,40.65
2022-12-08T06:13:44.332Z,42.78
2022-12-08T06:15:06.622Z,39.28
2022-12-08T06:16:28.801Z,49.42
2022-12-08T06:17:49.846Z,42.30
2022-12-08T06:19:10.955Z,34.45
2022-12-08T06:20:32.506Z,31.00
2022-12-08T06:21:53.514Z,38.42
2022-12-08T06:23:14.758Z,39.67
2022-12-08T06:24:35.855Z,41.72
2022-12-08T06:26:05.582Z,95.75
2022-12-08T06:27:26.507Z,157.70
2022-12-08T06:28:49.367Z,142.13
2022-12-08T06:30:10.793Z,323.33
2022-12-08T06:31:31.991Z,67.55
2022-12-08T06:32:52.970Z,49.72
2022-12-08T06:34:14.258Z,46.17
2022-12-08T06:35:35.505Z,50.15
2022-12-08T06:36:56.323Z,43.55
2022-12-08T06:38:17.464Z,48.75
2022-12-08T06:39:38.465Z,53.58
2022-12-08T06:40:59.841Z,96.07
2022-12-08T06:42:39.868Z,88.70
2022-12-08T06:45:21.548Z,44.08
2022-12-08T06:46:42.565Z,48.05
2022-12-08T06:48:03.927Z,48.42
2022-12-08T06:49:25.147Z,78.45
2022-12-08T06:50:46.240Z,128.23
2022-12-08T06:52:07.404Z,76.28
2022-12-08T06:53:28.676Z,76.90
2022-12-08T06:54:50.167Z,61.28
2022-12-08T06:56:11.840Z,51.42
2022-12-08T06:57:32.932Z,47.10
2022-12-08T06:58:54.107Z,49.63
2022-12-08T07:00:15.893Z,68.57
2022-12-08T07:01:36.946Z,62.17
2022-12-08T07:02:58.594Z,89.40
2022-12-08T07:04:19.668Z,77.22
2022-12-08T07:05:41.267Z,79.18
2022-12-08T07:07:02.444Z,76.28
2022-12-08T07:08:23.737Z,85.53
2022-12-08T07:09:44.814Z,110.82
2022-12-08T07:11:10.583Z,105.07
2022-12-08T07:12:31.749Z,95.90
2022-12-08T07:13:53.030Z,100.15
2022-12-08T07:15:14.243Z,123.60
2022-12-08T07:16:35.305Z,118.28
2022-12-08T07:18:00.085Z,122.18
2022-12-08T07:19:21.500Z,129.38
2022-12-08T07:20:42.537Z,173.55
2022-12-08T07:22:03.756Z,141.40
2022-12-08T07:23:24.796Z,118.22
2022-12-08T07:24:45.727Z,124.72
2022-12-08T07:26:08.427Z,100.90
2022-12-08T07:27:29.531Z,96.18
2022-12-08T07:28:50.678Z,102.35
2022-12-08T07:30:13.106Z,109.80
2022-12-08T07:31:34.207Z,111.68
2022-12-08T07:32:55.370Z,129.50
2022-12-08T07:34:16.435Z,127.47
2022-12-08T07:35:37.414Z,134.80
2022-12-08T07:36:58.647Z,124.47
2022-12-08T07:38:20.163Z,126.43
2022-12-08T07:39:41.408Z,128.00
2022-12-08T07:41:02.637Z,117.75
2022-12-08T07:42:23.929Z,138.32
2022-12-08T07:43:45.623Z,111.53
2022-12-08T07:45:07.628Z,85.07
2022-12-08T07:46:28.607Z,86.35
2022-12-08T07:47:49.761Z,91.97
2022-12-08T07:49:10.803Z,112.35
2022-12-08T07:50:31.970Z,73.25
2022-12-08T07:51:53.260Z,70.43
2022-12-08T07:53:14.744Z,75.72
2022-12-08T07:54:36.006Z,56.63
2022-12-08T07:55:57.817Z,67.05
2022-12-08T07:57:19.036Z,60.13
2022-12-08T07:58:41.031Z,50.72
2022-12-08T08:00:02.878Z,54.70
2022-12-08T08:01:34.489Z,63.92
2022-12-08T08:02:55.424Z,46.67
2022-12-08T08:04:16.871Z,47.22
2022-12-08T08:05:38.204Z,52.13
2022-12-08T08:06:59.595Z,42.20
2022-12-08T08:08:21.068Z,54.65
2022-12-08T08:09:42.320Z,49.92
2022-12-08T08:11:15.807Z,54.42
2022-12-08T08:12:40.527Z,43.03
2022-12-08T08:14:01.771Z,52.60
2022-12-08T08:15:23.002Z,61.42
2022-12-08T08:16:47.523Z,49.78
2022-12-08T08:18:08.829Z,60.65
2022-12-08T08:19:30.247Z,70.15
2022-12-08T08:20:51.607Z,58.67
2022-12-08T08:22:12.802Z,64.90
2022-12-08T08:23:34.896Z,63.10
2022-12-08T08:24:55.884Z,68.07
2022-12-08T08:26:17.286Z,53.30
2022-12-08T08:27:38.386Z,47.53
2022-12-08T08:28:59.566Z,66.30
2022-12-08T08:30:21.384Z,57.10
2022-12-08T08:31:42.570Z,51.90
2022-12-08T08:33:03.827Z,55.38
2022-12-08T08:34:24.800Z,56.53
2022-12-08T08:35:46.034Z,55.83
2022-12-08T08:37:07.345Z,52.70
2022-12-08T08:38:29.293Z,48.25
2022-12-08T08:39:51.625Z,54.33
2022-12-08T08:41:12.696Z,59.15
2022-12-08T08:42:34.774Z,46.55
2022-12-08T08:43:55.572Z,44.75
2022-12-08T08:45:16.819Z,41.47
2022-12-08T08:46:37.964Z,35.20
2022-12-08T08:47:59.662Z,37.42
2022-12-08T08:49:20.843Z,39.78
2022-12-08T08:50:42.022Z,33.85
2022-12-08T08:52:04.671Z,29.23
2022-12-08T08:53:26.108Z,44.85
2022-12-08T08:54:47.166Z,41.88
2022-12-08T08:56:19.414Z,43.88
2022-12-08T08:57:40.604Z,42.10
2022-12-08T08:59:03.106Z,32.63
2022-12-08T09:00:24.069Z,38.25
2022-12-08T09:01:46.435Z,49.22
2022-12-08T09:03:07.725Z,38.83
2022-12-08T09:04:29.889Z,34.95
2022-12-08T09:05:51.617Z,40.30
2022-12-08T09:07:13.605Z,35.53
2022-12-08T09:08:34.720Z,34.17
2022-12-08T09:10:01.617Z,32.30
2022-12-08T09:11:23.841Z,31.50
2022-12-08T09:12:44.882Z,33.83
2022-12-08T09:14:07.967Z,32.83
2022-12-08T09:15:30.315Z,40.50
2022-12-08T09:16:52.084Z,53.63
2022-12-08T09:18:13.178Z,49.28
2022-12-08T09:19:34.654Z,47.47
2022-12-08T09:20:55.852Z,47.20
2022-12-08T09:22:16.885Z,52.35
2022-12-08T09:23:38.080Z,51.03
2022-12-08T09:24:58.923Z,51.45
2022-12-08T09:26:24.047Z,53.47
2022-12-08T09:27:44.901Z,74.95
2022-12-08T09:29:06.024Z,84.13
2022-12-08T09:30:27.137Z,91.03
2022-12-08T09:31:48.026Z,121.78
2022-12-08T09:33:09.143Z,103.35
2022-12-08T09:34:31.323Z,99.63
2022-12-08T09:35:52.458Z,91.63
2022-12-08T09:37:14.267Z,94.28
2022-12-08T09:38:35.591Z,93.47
2022-12-08T09:39:57.918Z,92.13
2022-12-08T09:41:40.631Z,89.10
2022-12-08T09:43:20.075Z,90.53
2022-12-08T09:44:57.282Z,68.45
2022-12-08T09:46:19.517Z,79.38
2022-12-08T09:47:58.011Z,78.25
2022-12-08T09:49:25.165Z,76.53
2022-12-08T09:50:57.111Z,58.15
2022-12-08T09:52:33.632Z,73.60
2022-12-08T09:54:24.247Z,67.50
2022-12-08T09:55:54.651Z,68.10
2022-12-08T09:57:19.495Z,60.40
2022-12-08T09:58:57.132Z,52.17
2022-12-08T10:00:18.338Z,60.35
2022-12-08T10:01:42.120Z,62.97
2022-12-08T10:03:03.483Z,56.70
2022-12-08T10:04:34.905Z,55.80
2022-12-08T10:06:21.819Z,62.10
2022-12-08T10:07:49.416Z,54.72
2022-12-08T10:09:21.193Z,53.05
2022-12-08T10:10:47.355Z,58.20
2022-12-08T10:12:32.078Z,52.35
2022-12-08T10:14:10.289Z,45.03
2022-12-08T10:15:31.136Z,48.30
2022-12-08T10:16:58.583Z,45.00
2022-12-08T10:18:30.849Z,52.17
2022-12-08T10:20:12.399Z,54.97
2022-12-08T10:21:33.840Z,57.90
2022-12-08T10:23:07.739Z,63.50
2022-12-08T10:24:41.171Z,46.60
2022-12-08T10:26:15.366Z,57.80
2022-12-08T10:27:37.435Z,46.45
2022-12-08T10:29:02.904Z,47.42
2022-12-08T10:30:24.279Z,51.80
2022-12-08T10:31:45.925Z,46.58
2022-12-08T10:33:15.530Z,42.10
2022-12-08T10:35:05.281Z,59.72
2022-12-08T10:38:06.567Z,48.28
2022-12-08T10:39:34.384Z,59.58
2022-12-08T10:41:09.568Z,48.53
2022-12-08T10:42:38.211Z,46.72
2022-12-08T10:44:01.775Z,44.90
2022-12-08T10:45:23.273Z,42.10
2022-12-08T10:46:44.382Z,42.03
2022-12-08T10:48:17.104Z,44.80
2022-12-08T10:49:38.728Z,37.30
2022-12-08T10:51:00.659Z,40.90
2022-12-08T10:52:25.365Z,50.30
2022-12-08T10:53:47.239Z,56.35
2022-12-08T10:55:17.937Z,50.53
2022-12-08T10:56:39.173Z,49.33
2022-12-08T10:58:00.484Z,46.60
2022-12-08T10:59:21.721Z,45.22
2022-12-08T11:00:43.054Z,48.63
2022-12-08T11:02:09.009Z,89.45
2022-12-08T11:03:39.702Z,71.90
2022-12-08T11:05:00.692Z,55.30
2022-12-08T11:06:30.357Z,55.72
2022-12-08T11:07:53.965Z,52.58
2022-12-08T11:09:17.984Z,56.63
2022-12-08T11:10:44.974Z,56.03
2022-12-08T11:12:15.333Z,50.05
2022-12-08T11:13:41.573Z,54.95
2022-12-08T11:15:05.299Z,54.35
2022-12-08T11:16:27.583Z,138.07
2022-12-08T11:18:01.188Z,119.03
2022-12-08T11:19:27.605Z,114.35
2022-12-08T11:21:00.297Z,104.40
2022-12-08T11:22:42.615Z,104.85
2022-12-08T11:24:16.110Z,78.55
2022-12-08T11:25:37.353Z,75.63
2022-12-08T11:27:02.665Z,71.28
2022-12-08T11:28:25.070Z,73.47
2022-12-08T11:29:46.362Z,74.45
2022-12-08T11:31:33.726Z,64.97
2022-12-08T11:33:17.902Z,67.80
2022-12-08T11:34:48.030Z,50.97
2022-12-08T11:36:14.538Z,69.20
2022-12-08T11:37:41.565Z,68.53
2022-12-08T11:39:04.678Z,78.85
2022-12-08T11:40:32.777Z,87.68
2022-12-08T11:41:56.350Z,75.18
2022-12-08T11:43:28.468Z,93.70
2022-12-08T11:44:53.233Z,94.80
2022-12-08T11:46:46.703Z,72.47
2022-12-08T11:48:23.979Z,84.25
2022-12-08T11:51:13.522Z,57.97
2022-12-08T11:52:45.229Z,47.97
2022-12-08T11:54:24.146Z,46.15
2022-12-08T11:55:58.774Z,56.08
2022-12-08T11:57:23.209Z,53.72
2022-12-08T11:58:50.558Z,46.25
2022-12-08T12:00:15.181Z,61.33
2022-12-08T12:01:42.213Z,52.47
2022-12-08T12:03:32.443Z,53.30
2022-12-08T12:05:10.082Z,53.38
2022-12-08T12:06:54.574Z,66.65
2022-12-08T12:08:43.764Z,68.47
2022-12-08T12:10:23.215Z,72.80
2022-12-08T12:12:09.123Z,77.40
2022-12-08T12:13:39.348Z,74.88
2022-12-08T12:17:06.277Z,66.68
2022-12-08T12:18:46.363Z,80.05
2022-12-08T12:21:57.239Z,75.07
2022-12-08T12:23:36.406Z,62.90
2022-12-08T12:24:57.529Z,51.08
2022-12-08T12:26:22.556Z,53.67
2022-12-08T12:27:45.565Z,50.03
2022-12-08T12:29:26.095Z,53.67
2022-12-08T12:31:06.437Z,49.78
2022-12-08T12:32:43.123Z,45.90
2022-12-08T12:34:15.473Z,49.45
2022-12-08T12:35:43.157Z,47.40
2022-12-08T12:37:10.451Z,45.20
2022-12-08T12:38:59.193Z,53.00
2022-12-08T12:40:24.157Z,41.55
2022-12-08T12:41:52.118Z,51.22
2022-12-08T12:43:24.374Z,47.47
2022-12-08T12:44:45.412Z,52.42
2022-12-08T12:46:43.599Z,65.00
2022-12-08T12:48:04.411Z,99.72
2022-12-08T12:49:40.942Z,93.00
2022-12-08T12:51:39.876Z,112.18
2022-12-08T12:53:02.905Z,68.85
2022-12-08T12:54:25.913Z,58.60
2022-12-08T12:56:03.964Z,53.55
2022-12-08T12:57:39.854Z,39.88
2022-12-08T12:59:29.436Z,41.50
2022-12-08T13:02:34.145Z,51.35
2022-12-08T13:04:09.777Z,56.42
2022-12-08T13:05:48.973Z,63.42
2022-12-08T13:07:21.515Z,59.03
2022-12-08T13:08:52.629Z,66.57
2022-12-08T13:10:25.948Z,68.90
2022-12-08T13:11:51.882Z,65.50
2022-12-08T13:13:12.825Z,52.90
2022-12-08T13:14:46.777Z,53.03
2022-12-08T13:16:18.575Z,45.83
2022-12-08T13:17:45.753Z,38.33
2022-12-08T13:19:16.049Z,46.33
2022-12-08T13:20:46.013Z,44.20
2022-12-08T13:22:45.060Z,42.92
2022-12-08T13:24:17.899Z,54.03
2022-12-08T13:25:44.945Z,54.05
2022-12-08T13:27:05.683Z,49.22
2022-12-08T13:28:31.285Z,94.95
2022-12-08T13:30:31.235Z,50.83
2022-12-08T13:33:25.783Z,99.95
2022-12-08T13:34:55.490Z,87.50
2022-12-08T13:36:26.123Z,51.20
2022-12-08T13:37:54.927Z,72.25
2022-12-08T13:39:26.753Z,86.30
2022-12-08T13:41:08.797Z,48.90
2022-12-08T13:42:51.085Z,92.90
2022-12-08T13:45:18.659Z,103.22
2022-12-08T13:46:57.940Z,69.03
2022-12-08T13:48:23.377Z,61.00
2022-12-08T13:51:10.573Z,155.82
2022-12-08T13:57:27.492Z,150.23
2022-12-08T13:58:48.683Z,66.35
2022-12-08T14:00:18.399Z,57.22
2022-12-08T14:01:44.866Z,47.70
2022-12-08T14:03:05.984Z,68.68
2022-12-08T14:04:54.288Z,58.50
2022-12-08T14:06:25.019Z,60.13
2022-12-08T14:07:48.951Z,46.70
2022-12-08T14:09:27.250Z,71.38
2022-12-08T14:10:57.641Z,76.88
2022-12-08T14:12:25.280Z,67.18
2022-12-08T14:13:46.076Z,59.97
2022-12-08T14:15:08.124Z,60.17
2022-12-08T14:16:36.095Z,62.88
2022-12-08T14:17:57.950Z,62.22
2022-12-08T14:19:28.004Z,67.60
2022-12-08T14:21:22.402Z,58.20
2022-12-08T14:22:44.417Z,50.60
2022-12-08T14:24:05.874Z,55.35
2022-12-08T14:25:30.182Z,56.85
2022-12-08T14:26:54.224Z,116.43
2022-12-08T14:28:15.105Z,81.40
2022-12-08T14:30:09.945Z,88.10
2022-12-08T14:31:31.171Z,68.35
2022-12-08T14:32:58.795Z,70.90
2022-12-08T14:34:19.623Z,69.20
2022-12-08T14:35:40.836Z,77.70
2022-12-08T14:37:02.030Z,114.28
2022-12-08T14:38:25.850Z,134.15
2022-12-08T14:39:47.329Z,130.88
2022-12-08T14:41:11.974Z,108.97
2022-12-08T14:42:44.126Z,98.28
2022-12-08T14:44:23.325Z,92.70
2022-12-08T14:45:44.220Z,95.72
2022-12-08T14:47:08.453Z,106.50
2022-12-08T14:48:38.807Z,126.10
2022-12-08T14:50:01.141Z,131.73
2022-12-08T14:51:22.081Z,135.70
2022-12-08T14:52:44.846Z,135.65
2022-12-08T14:54:09.933Z,142.02
2022-12-08T14:55:36.457Z,138.63
2022-12-08T14:56:58.241Z,129.27
2022-12-08T14:58:29.515Z,133.75
2022-12-08T14:59:50.809Z,133.88
2022-12-08T15:01:17.095Z,142.30
2022-12-08T15:02:46.330Z,120.22
2022-12-08T15:04:14.027Z,128.25
2022-12-08T15:05:35.196Z,124.30
2022-12-08T15:07:01.140Z,113.97
2022-12-08T15:08:22.693Z,104.60
2022-12-08T15:09:47.263Z,100.07
2022-12-08T15:11:24.770Z,96.18
2022-12-08T15:13:08.861Z,88.82
2022-12-08T15:14:33.593Z,94.95
2022-12-08T15:15:57.782Z,118.05
2022-12-08T15:17:34.468Z,224.40
2022-12-08T15:19:05.937Z,153.60
2022-12-08T15:20:31.665Z,114.15
2022-12-08T15:21:57.075Z,118.82
2022-12-08T15:23:27.445Z,114.28
2022-12-08T15:24:48.896Z,114.85
2022-12-08T15:26:21.924Z,127.50
2022-12-08T15:27:50.275Z,150.10
2022-12-08T15:29:20.898Z,176.07
2022-12-08T15:30:42.169Z,191.25
2022-12-08T15:32:09.720Z,226.20
2022-12-08T15:33:30.699Z,198.73
2022-12-08T15:34:52.185Z,209.50
2022-12-08T15:36:13.740Z,228.90
2022-12-08T15:37:34.713Z,238.77
2022-12-08T15:38:55.675Z,224.48
2022-12-08T15:40:22.907Z,212.88
2022-12-08T15:41:43.860Z,155.70
2022-12-08T15:43:04.783Z,161.23
2022-12-08T15:44:26.377Z,171.73
2022-12-08T15:45:58.509Z,234.95
2022-12-08T15:47:23.864Z,327.08
2022-12-08T15:48:45.166Z,327.33
2022-12-08T15:50:07.558Z,364.42
2022-12-08T15:51:30.991Z,361.73
2022-12-08T15:52:52.181Z,445.10
2022-12-08T15:54:13.575Z,319.55
2022-12-08T15:55:38.744Z,263.77
2022-12-08T15:57:18.983Z,474.33
2022-12-08T15:58:57.927Z,365.10
2022-12-08T16:00:50.537Z,642.22
2022-12-08T16:02:02.917Z,401.17
2022-12-08T16:05:40.970Z,650.13
2022-12-08T16:08:51.813Z,268.40
2022-12-08T16:10:19.115Z,95.78
2022-12-08T16:12:08.306Z,70.22
2022-12-08T16:17:02.381Z,81.25
2022-12-08T16:18:28.016Z,88.75
2022-12-08T16:19:49.499Z,82.93
2022-12-08T16:21:34.285Z,79.00
2022-12-08T16:22:59.657Z,60.47
2022-12-08T16:24:34.443Z,58.95
2022-12-08T16:26:20.162Z,60.25
2022-12-08T16:29:21.147Z,88.65
2022-12-08T16:30:42.162Z,90.55
2022-12-08T16:32:03.041Z,106.05
2022-12-08T16:33:24.511Z,196.23
2022-12-08T16:34:45.474Z,182.25
2022-12-08T16:36:06.974Z,147.82
2022-12-08T16:37:28.821Z,135.70
2022-12-08T16:38:50.244Z,155.07
2022-12-08T16:40:12.584Z,117.90
2022-12-08T16:41:52.193Z,97.10
2022-12-08T16:43:13.081Z,72.45
2022-12-08T16:44:34.093Z,81.22
2022-12-08T16:45:55.268Z,75.65
2022-12-08T16:47:16.487Z,94.82
2022-12-08T16:48:37.965Z,110.03
2022-12-08T16:49:59.474Z,101.03
2022-12-08T16:51:26.438Z,100.05
2022-12-08T16:52:49.044Z,72.60
2022-12-08T16:54:09.787Z,66.45
2022-12-08T16:55:31.364Z,46.33
2022-12-08T16:56:52.622Z,47.30
2022-12-08T16:58:14.592Z,70.28
2022-12-08T16:59:35.488Z,78.20
2022-12-08T17:01:02.354Z,90.97
2022-12-08T17:02:23.812Z,112.15
2022-12-08T17:04:01.414Z,104.88
2022-12-08T17:05:27.328Z,100.07
2022-12-08T17:06:50.960Z,83.47
2022-12-08T17:08:13.327Z,78.45
2022-12-08T17:09:34.517Z,91.78
2022-12-08T17:11:07.438Z,140.75
2022-12-08T17:12:28.962Z,154.48
2022-12-08T17:13:49.855Z,133.80
2022-12-08T17:15:15.082Z,146.77
2022-12-08T17:16:36.059Z,149.25
2022-12-08T17:17:57.229Z,152.45
2022-12-08T17:19:19.009Z,122.72
2022-12-08T17:20:40.448Z,129.85
2022-12-08T17:22:02.328Z,110.35
2022-12-08T17:23:26.430Z,61.75
2022-12-08T17:24:47.650Z,87.35
2022-12-08T17:26:09.852Z,59.95
2022-12-08T17:27:31.246Z,93.60
2022-12-08T17:29:00.443Z,123.00
2022-12-08T17:30:21.942Z,218.38
2022-12-08T17:31:42.994Z,256.42
2022-12-08T17:33:04.516Z,460.27
2022-12-08T17:34:31.595Z,329.75
2022-12-08T17:35:54.351Z,288.60
2022-12-08T17:37:16.082Z,180.25
2022-12-08T17:38:37.956Z,111.03
2022-12-08T17:39:59.268Z,106.03
2022-12-08T17:41:20.045Z,70.30
2022-12-08T17:42:42.457Z,81.88
2022-12-08T17:44:03.536Z,96.03
2022-12-08T17:45:24.535Z,103.28
2022-12-08T17:46:52.103Z,95.80
2022-12-08T17:48:15.029Z,166.98
2022-12-08T17:49:38.898Z,166.63
2022-12-08T17:51:00.250Z,142.10
2022-12-08T17:52:21.030Z,112.78
2022-12-08T17:53:42.677Z,146.75
2022-12-08T17:55:04.194Z,129.43
2022-12-08T17:56:25.078Z,167.65
2022-12-08T17:57:46.127Z,149.93
2022-12-08T17:59:07.423Z,176.60
2022-12-08T18:00:29.079Z,154.00
2022-12-08T18:01:52.555Z,153.07
2022-12-08T18:03:13.920Z,117.97
2022-12-08T18:04:34.819Z,121.15
2022-12-08T18:05:56.109Z,120.65
2022-12-08T18:07:17.462Z,95.05
2022-12-08T18:08:39.715Z,63.50
2022-12-08T18:10:00.882Z,85.35
2022-12-08T18:11:22.079Z,114.75
2022-12-08T18:12:43.281Z,226.77
2022-12-08T18:14:10.195Z,160.93
2022-12-08T18:15:37.474Z,81.60
2022-12-08T18:17:00.363Z,64.15
2022-12-08T18:18:22.735Z,78.38
2022-12-08T18:19:44.151Z,87.22
2022-12-08T18:21:06.020Z,91.40
2022-12-08T18:22:27.219Z,62.58
2022-12-08T18:23:48.099Z,67.43
2022-12-08T18:25:10.889Z,55.83
2022-12-08T18:26:32.421Z,105.88
2022-12-08T18:27:53.313Z,96.93
2022-12-08T18:29:14.274Z,101.75
2022-12-08T18:30:35.152Z,110.63
2022-12-08T18:31:56.469Z,226.82
2022-12-08T18:33:17.800Z,216.77
2022-12-08T18:34:38.933Z,247.63
2022-12-08T18:35:59.969Z,165.95
2022-12-08T18:37:21.021Z,209.63
2022-12-08T18:38:43.154Z,209.77
2022-12-08T18:40:04.943Z,165.45
2022-12-08T18:41:30.992Z,144.02
2022-12-08T18:42:55.157Z,145.85
2022-12-08T18:44:16.069Z,418.48
2022-12-08T18:45:39.992Z,397.90